createdAt,value
2018-09-06T00:01:11.340Z,55.50
2018-09-06T00:03:38.169Z,56.20
2018-09-06T00:06:05.012Z,55.50
2018-09-06T00:08:31.851Z,55.50
2018-09-06T00:10:58.865Z,55.50
2018-09-06T00:13:25.697Z,55.50
2018-09-06T00:15:52.537Z,55.50
2018-09-06T00:18:19.378Z,55.50
2018-09-06T00:20:46.206Z,55.50
2018-09-06T00:23:13.044Z,55.50
2018-09-06T00:25:39.874Z,55.50
2018-09-06T00:28:06.697Z,55.50
2018-09-06T00:30:33.549Z,55.50
2018-09-06T00:33:00.395Z,55.50
2018-09-06T00:35:27.212Z,55.40
2018-09-06T00:37:54.044Z,55.50
2018-09-06T00:40:20.988Z,55.40
2018-09-06T00:42:47.821Z,55.50
2018-09-06T00:45:14.663Z,55.40
2018-09-06T00:47:41.516Z,55.40
2018-09-06T00:50:08.335Z,55.50
2018-09-06T00:52:35.155Z,55.40
2018-09-06T00:55:01.998Z,55.40
2018-09-06T00:57:28.846Z,55.40
2018-09-06T00:59:55.656Z,55.40
2018-09-06T01:02:22.481Z,55.40
2018-09-06T01:04:49.323Z,55.40
2018-09-06T01:07:16.146Z,55.40
2018-09-06T01:09:42.963Z,55.40
2018-09-06T01:12:09.799Z,55.40
2018-09-06T01:14:36.638Z,55.40
2018-09-06T01:17:03.472Z,55.40
2018-09-06T01:19:30.291Z,55.40
2018-09-06T01:21:57.114Z,55.40
2018-09-06T01:24:23.942Z,55.40
2018-09-06T01:26:50.765Z,55.40
2018-09-06T01:29:17.585Z,55.40
2018-09-06T01:31:44.424Z,55.40
2018-09-06T01:34:11.254Z,55.40
2018-09-06T01:36:38.087Z,55.40
2018-09-06T01:39:04.930Z,55.40
2018-09-06T01:41:31.755Z,55.40
2018-09-06T01:43:58.588Z,55.40
2018-09-06T01:46:25.529Z,55.40
2018-09-06T01:48:52.343Z,55.40
2018-09-06T01:51:19.171Z,55.40
2018-09-06T01:53:46.094Z,55.30
2018-09-06T01:56:13.101Z,55.40
2018-09-06T01:58:39.922Z,55.40
2018-09-06T02:01:06.762Z,55.40
2018-09-06T02:03:33.588Z,55.30
2018-09-06T02:06:01.323Z,55.30
2018-09-06T02:08:28.140Z,55.30
2018-09-06T02:10:54.961Z,55.30
2018-09-06T02:13:21.782Z,55.30
2018-09-06T02:15:48.606Z,55.30
2018-09-06T02:18:15.430Z,55.30
2018-09-06T02:20:42.256Z,55.30
2018-09-06T02:23:09.306Z,55.30
2018-09-06T02:25:36.105Z,55.30
2018-09-06T02:28:02.945Z,55.30
2018-09-06T02:30:29.776Z,55.30
2018-09-06T02:32:56.615Z,55.30
2018-09-06T02:35:23.441Z,55.20
2018-09-06T02:37:50.271Z,55.20
2018-09-06T02:40:17.104Z,55.20
2018-09-06T02:42:43.922Z,55.20
2018-09-06T02:45:10.759Z,55.20
2018-09-06T02:47:37.590Z,55.20
2018-09-06T02:50:04.468Z,55.20
2018-09-06T02:52:31.291Z,55.20
2018-09-06T02:54:58.126Z,55.20
2018-09-06T02:57:24.962Z,55.20
2018-09-06T02:59:51.798Z,55.20
2018-09-06T03:02:18.631Z,55.20
2018-09-06T03:04:45.464Z,55.20
2018-09-06T03:07:12.305Z,55.20
2018-09-06T03:09:39.140Z,55.20
2018-09-06T03:12:05.965Z,55.20
2018-09-06T03:14:32.799Z,55.20
2018-09-06T03:16:59.617Z,55.20
2018-09-06T03:19:26.459Z,55.20
2018-09-06T03:21:53.266Z,55.10
2018-09-06T03:24:20.099Z,55.10
2018-09-06T03:26:46.937Z,55.10
2018-09-06T03:29:13.791Z,55.10
2018-09-06T03:31:40.618Z,55.10
2018-09-06T03:34:07.454Z,55.10
2018-09-06T03:36:34.274Z,55.10
2018-09-06T03:39:01.101Z,55.10
2018-09-06T03:41:27.933Z,55.10
2018-09-06T03:43:54.756Z,55.10
2018-09-06T03:46:21.616Z,55.10
2018-09-06T03:48:48.469Z,55.10
2018-09-06T03:51:15.280Z,55.10
2018-09-06T03:53:42.124Z,55.10
2018-09-06T03:56:09.019Z,55.60
2018-09-06T03:58:35.854Z,55.00
2018-09-06T04:01:02.714Z,55.00
2018-09-06T04:03:29.529Z,55.00
2018-09-06T04:05:56.409Z,55.00
2018-09-06T04:08:23.225Z,54.90
2018-09-06T04:10:50.046Z,54.90
2018-09-06T04:13:16.877Z,55.00
2018-09-06T04:15:43.762Z,55.00
2018-09-06T04:18:10.593Z,55.00
2018-09-06T04:20:37.418Z,55.00
2018-09-06T04:23:04.294Z,55.00
2018-09-06T04:25:31.140Z,55.00
2018-09-06T04:27:57.957Z,55.00
2018-09-06T04:30:24.791Z,55.10
2018-09-06T04:32:51.631Z,55.00
2018-09-06T04:35:18.514Z,55.00
2018-09-06T04:37:45.387Z,55.00
2018-09-06T04:40:12.187Z,55.00
2018-09-06T04:42:39.014Z,55.00
2018-09-06T04:45:05.841Z,55.10
2018-09-06T04:47:32.670Z,55.10
2018-09-06T04:49:59.493Z,55.10
2018-09-06T04:52:26.319Z,55.00
2018-09-06T04:54:53.148Z,55.10
2018-09-06T04:57:19.974Z,55.10
2018-09-06T04:59:46.810Z,55.10
2018-09-06T05:02:14.201Z,55.00
2018-09-06T05:04:41.203Z,55.00
2018-09-06T05:07:08.045Z,55.00
2018-09-06T05:09:34.869Z,54.90
2018-09-06T05:12:01.718Z,54.90
2018-09-06T05:14:28.555Z,54.90
2018-09-06T05:16:55.386Z,54.90
2018-09-06T05:19:22.214Z,54.90
2018-09-06T05:21:49.036Z,54.90
2018-09-06T05:24:15.860Z,54.90
2018-09-06T05:26:42.703Z,54.90
2018-09-06T05:29:09.534Z,54.90
2018-09-06T05:31:36.373Z,54.90
2018-09-06T05:34:03.204Z,54.90
2018-09-06T05:36:30.142Z,54.90
2018-09-06T05:38:56.909Z,54.90
2018-09-06T05:41:23.918Z,54.90
2018-09-06T05:43:50.728Z,54.90
2018-09-06T05:46:17.545Z,54.90
2018-09-06T05:48:44.375Z,54.80
2018-09-06T05:51:11.191Z,54.90
2018-09-06T05:53:38.018Z,54.80
2018-09-06T05:56:04.845Z,54.90
2018-09-06T05:58:31.663Z,54.80
2018-09-06T06:00:58.586Z,54.80
2018-09-06T06:03:25.973Z,54.80
2018-09-06T06:05:52.817Z,54.90
2018-09-06T06:08:19.647Z,55.40
2018-09-06T06:10:46.474Z,54.80
2018-09-06T06:13:13.299Z,54.80
2018-09-06T06:15:40.131Z,54.80
2018-09-06T06:18:06.955Z,54.80
2018-09-06T06:20:33.783Z,54.70
2018-09-06T06:23:00.604Z,54.70
2018-09-06T06:25:27.464Z,54.70
2018-09-06T06:27:54.289Z,54.70
2018-09-06T06:30:21.125Z,54.70
2018-09-06T06:32:47.944Z,54.70
2018-09-06T06:35:14.767Z,54.70
2018-09-06T06:37:41.590Z,54.70
2018-09-06T06:40:08.451Z,54.60
2018-09-06T06:42:35.267Z,54.60
2018-09-06T06:45:02.095Z,54.70
2018-09-06T06:47:28.954Z,54.70
2018-09-06T06:49:55.778Z,54.70
2018-09-06T06:52:22.619Z,54.70
2018-09-06T06:54:49.446Z,54.70
2018-09-06T06:57:16.261Z,54.70
2018-09-06T06:59:43.102Z,54.60
2018-09-06T07:02:10.034Z,54.60
2018-09-06T07:04:36.874Z,54.60
2018-09-06T07:07:03.786Z,55.20
2018-09-06T07:09:30.504Z,54.60
2018-09-06T07:11:57.333Z,54.60
2018-09-06T07:14:24.174Z,54.50
2018-09-06T07:16:51.020Z,54.50
2018-09-06T07:19:17.838Z,54.50
2018-09-06T07:21:44.663Z,54.60
2018-09-06T07:24:11.490Z,54.60
2018-09-06T07:26:38.321Z,54.60
2018-09-06T07:29:05.154Z,54.60
2018-09-06T07:31:31.990Z,54.60
2018-09-06T07:33:58.820Z,54.60
2018-09-06T07:36:25.661Z,54.60
2018-09-06T07:38:52.504Z,54.60
2018-09-06T07:41:19.377Z,54.60
2018-09-06T07:43:46.165Z,54.60
2018-09-06T07:46:13.026Z,54.60
2018-09-06T07:48:39.856Z,54.50
2018-09-06T07:51:06.696Z,54.50
2018-09-06T07:53:33.519Z,54.60
2018-09-06T07:56:00.352Z,54.60
2018-09-06T07:58:27.181Z,54.60
2018-09-06T08:00:54.010Z,54.60
2018-09-06T08:03:20.839Z,54.50
2018-09-06T08:05:47.672Z,54.50
2018-09-06T08:08:14.510Z,54.50
2018-09-06T08:10:41.347Z,54.40
2018-09-06T08:13:08.174Z,54.50
2018-09-06T08:15:35.096Z,54.40
2018-09-06T08:18:01.932Z,54.40
2018-09-06T08:20:28.789Z,54.40
2018-09-06T08:22:55.605Z,55.00
2018-09-06T08:25:22.437Z,54.50
2018-09-06T08:27:49.264Z,54.40
2018-09-06T08:30:16.093Z,54.40
2018-09-06T08:32:42.920Z,54.40
2018-09-06T08:35:09.955Z,54.30
2018-09-06T08:37:36.784Z,54.30
2018-09-06T08:40:03.613Z,54.30
2018-09-06T08:42:30.447Z,54.40
2018-09-06T08:44:57.291Z,54.40
2018-09-06T08:47:24.279Z,54.40
2018-09-06T08:49:51.088Z,54.40
2018-09-06T08:52:17.985Z,54.30
2018-09-06T08:54:44.732Z,54.30
2018-09-06T08:57:11.560Z,54.30
2018-09-06T08:59:38.384Z,54.30
2018-09-06T09:02:05.398Z,54.30
2018-09-06T09:04:32.197Z,54.40
2018-09-06T09:06:59.386Z,54.30
2018-09-06T09:09:26.181Z,54.30
2018-09-06T09:11:52.990Z,54.30
2018-09-06T09:14:19.840Z,54.30
2018-09-06T09:16:46.639Z,54.20
2018-09-06T09:19:13.489Z,54.20
2018-09-06T09:21:40.419Z,54.20
2018-09-06T09:24:07.148Z,54.20
2018-09-06T09:26:33.977Z,54.30
2018-09-06T09:29:00.810Z,54.30
2018-09-06T09:31:27.681Z,54.30
2018-09-06T09:33:54.504Z,54.30
2018-09-06T09:36:21.331Z,54.20
2018-09-06T09:38:48.162Z,54.20
2018-09-06T09:41:15.040Z,54.20
2018-09-06T09:43:41.832Z,54.30
2018-09-06T09:48:34.674Z,54.30
2018-09-06T09:51:01.510Z,54.30
2018-09-06T09:53:28.339Z,54.20
2018-09-06T09:55:55.156Z,54.20
2018-09-06T09:58:21.984Z,54.20
2018-09-06T10:00:48.811Z,54.20
2018-09-06T10:03:15.655Z,54.30
2018-09-06T10:05:42.494Z,54.30
2018-09-06T10:08:09.331Z,54.30
2018-09-06T10:10:36.156Z,54.30
2018-09-06T10:13:02.985Z,54.30
2018-09-06T10:15:29.810Z,54.30
2018-09-06T10:17:56.636Z,54.30
2018-09-06T10:20:23.466Z,54.30
2018-09-06T10:22:50.328Z,54.30
2018-09-06T10:25:17.145Z,54.30
2018-09-06T10:27:44.011Z,54.30
2018-09-06T10:30:10.831Z,54.30
2018-09-06T10:32:37.745Z,54.30
2018-09-06T10:35:04.569Z,54.30
2018-09-06T10:37:31.390Z,54.20
2018-09-06T10:39:58.244Z,54.20
2018-09-06T10:42:25.049Z,54.20
2018-09-06T10:44:51.900Z,54.40
2018-09-06T10:47:19.213Z,54.90
2018-09-06T10:49:46.026Z,54.20
2018-09-06T10:52:12.849Z,54.20
2018-09-06T10:54:39.681Z,54.20
2018-09-06T10:57:06.532Z,54.40
2018-09-06T10:59:33.348Z,54.20
2018-09-06T11:02:00.188Z,54.30
2018-09-06T11:04:27.026Z,54.30
2018-09-06T11:06:53.848Z,54.30
2018-09-06T11:09:20.681Z,54.90
2018-09-06T11:11:47.512Z,54.30
2018-09-06T11:14:14.333Z,54.30
2018-09-06T11:16:41.149Z,54.30
2018-09-06T11:19:07.965Z,54.30
2018-09-06T11:21:34.872Z,54.30
2018-09-06T11:24:01.618Z,54.30
2018-09-06T11:26:28.445Z,54.30
2018-09-06T11:28:55.269Z,54.40
2018-09-06T11:31:22.119Z,54.40
2018-09-06T11:33:48.982Z,54.50
2018-09-06T11:36:15.804Z,54.40
2018-09-06T11:38:42.630Z,54.40
2018-09-06T11:41:09.458Z,54.40
2018-09-06T11:43:36.294Z,54.40
2018-09-06T11:46:03.117Z,54.40
2018-09-06T11:48:29.947Z,54.40
2018-09-06T11:50:56.764Z,54.40
2018-09-06T11:53:23.590Z,54.40
2018-09-06T11:55:50.440Z,54.40
2018-09-06T11:58:17.258Z,54.40
2018-09-06T12:00:44.090Z,54.40
2018-09-06T12:03:10.907Z,54.40
2018-09-06T12:05:37.745Z,54.50
2018-09-06T12:08:04.582Z,54.40
2018-09-06T12:10:31.393Z,54.40
2018-09-06T12:12:58.222Z,54.40
2018-09-06T12:15:25.050Z,54.50
2018-09-06T12:17:51.907Z,54.40
2018-09-06T12:20:18.743Z,54.40
2018-09-06T12:22:45.573Z,55.10
2018-09-06T12:25:12.753Z,55.10
2018-09-06T12:27:39.522Z,54.40
2018-09-06T12:30:06.812Z,54.40
2018-09-06T12:32:33.655Z,54.50
2018-09-06T12:35:00.459Z,54.50
2018-09-06T12:37:27.285Z,54.50
2018-09-06T12:39:54.119Z,54.40
2018-09-06T12:42:20.942Z,54.50
2018-09-06T12:44:47.808Z,54.50
2018-09-06T12:47:15.321Z,54.50
2018-09-06T12:49:42.185Z,55.20
2018-09-06T12:52:08.975Z,54.50
2018-09-06T12:54:35.787Z,54.50
2018-09-06T12:57:02.611Z,54.50
2018-09-06T12:59:29.441Z,54.40
2018-09-06T13:01:56.265Z,54.50
2018-09-06T13:04:23.104Z,54.50
2018-09-06T13:06:49.930Z,54.40
2018-09-06T13:09:16.754Z,54.50
2018-09-06T13:11:43.594Z,54.40
2018-09-06T13:14:10.418Z,54.50
2018-09-06T13:16:37.259Z,54.50
2018-09-06T13:19:04.078Z,54.50
2018-09-06T13:21:30.919Z,54.50
2018-09-06T13:23:57.755Z,54.50
2018-09-06T13:26:24.584Z,54.50
2018-09-06T13:28:51.417Z,54.60
2018-09-06T13:31:19.158Z,54.50
2018-09-06T13:33:46.004Z,54.50
2018-09-06T13:36:12.833Z,54.50
2018-09-06T13:38:39.657Z,54.50
2018-09-06T13:41:06.488Z,54.50
2018-09-06T13:43:33.352Z,54.50
2018-09-06T13:46:00.146Z,54.60
2018-09-06T13:48:26.970Z,54.50
2018-09-06T13:50:53.803Z,54.60
2018-09-06T13:53:20.643Z,54.50
2018-09-06T13:55:47.462Z,54.60
2018-09-06T13:58:14.303Z,54.60
2018-09-06T14:00:41.165Z,54.60
2018-09-06T14:03:07.999Z,54.60
2018-09-06T14:05:34.817Z,55.20
2018-09-06T14:08:01.646Z,54.60
2018-09-06T14:10:28.482Z,54.60
2018-09-06T14:12:55.469Z,54.60
2018-09-06T14:15:22.289Z,54.60
2018-09-06T14:17:49.112Z,54.60
2018-09-06T14:20:16.505Z,54.60
2018-09-06T14:22:43.311Z,54.60
2018-09-06T14:25:10.141Z,54.60
2018-09-06T14:27:36.987Z,54.60
2018-09-06T14:30:03.806Z,54.60
2018-09-06T14:32:30.640Z,54.60
2018-09-06T14:34:57.482Z,54.60
2018-09-06T14:37:24.317Z,54.60
2018-09-06T14:39:51.150Z,54.60
2018-09-06T14:42:17.977Z,54.60
2018-09-06T14:44:44.815Z,54.70
2018-09-06T14:47:11.636Z,54.70
2018-09-06T14:49:38.530Z,54.70
2018-09-06T14:52:05.364Z,54.60
2018-09-06T14:54:32.188Z,54.70
2018-09-06T14:56:59.020Z,54.70
2018-09-06T14:59:25.850Z,54.70
2018-09-06T15:01:52.672Z,54.70
2018-09-06T15:04:19.501Z,54.70
2018-09-06T15:06:46.321Z,54.70
2018-09-06T15:09:13.161Z,54.60
2018-09-06T15:11:39.984Z,54.60
2018-09-06T15:14:06.814Z,55.20
2018-09-06T15:16:33.650Z,54.70
2018-09-06T15:19:00.544Z,54.70
2018-09-06T15:21:27.388Z,54.70
2018-09-06T15:23:54.200Z,54.70
2018-09-06T15:26:21.031Z,54.80
2018-09-06T15:28:47.855Z,54.70
2018-09-06T15:31:14.899Z,54.70
2018-09-06T15:33:41.701Z,54.70
2018-09-06T15:36:08.545Z,54.90
2018-09-06T15:38:35.371Z,55.00
2018-09-06T15:41:02.201Z,55.00
2018-09-06T15:43:29.030Z,55.00
2018-09-06T15:45:55.863Z,55.00
2018-09-06T15:48:22.678Z,55.00
2018-09-06T15:50:49.509Z,55.00
2018-09-06T15:53:16.336Z,55.00
2018-09-06T15:55:43.293Z,55.00
2018-09-06T15:58:10.094Z,55.00
2018-09-06T16:00:36.933Z,55.00
2018-09-06T16:03:03.777Z,55.00
2018-09-06T16:05:30.666Z,55.00
2018-09-06T16:07:57.497Z,55.00
2018-09-06T16:10:24.330Z,55.00
2018-09-06T16:12:51.157Z,55.00
2018-09-06T16:15:18.040Z,55.00
2018-09-06T16:17:44.866Z,55.10
2018-09-06T16:20:11.716Z,55.10
2018-09-06T16:22:38.537Z,55.20
2018-09-06T16:25:06.339Z,55.20
2018-09-06T16:27:33.139Z,55.20
2018-09-06T16:29:59.975Z,55.20
2018-09-06T16:32:27.094Z,55.30
2018-09-06T16:34:54.008Z,55.50
2018-09-06T16:37:20.833Z,55.20
2018-09-06T16:39:47.668Z,55.10
2018-09-06T16:42:14.495Z,55.20
2018-09-06T16:44:41.389Z,55.40
2018-09-06T16:47:08.233Z,55.40
2018-09-06T16:49:35.045Z,55.30
2018-09-06T16:52:01.880Z,55.30
2018-09-06T16:54:28.699Z,55.40
2018-09-06T16:56:55.525Z,55.30
2018-09-06T16:59:22.360Z,56.00
2018-09-06T17:01:49.231Z,55.40
2018-09-06T17:04:16.037Z,55.40
2018-09-06T17:06:42.861Z,55.50
2018-09-06T17:09:09.686Z,55.50
2018-09-06T17:11:36.514Z,56.20
2018-09-06T17:14:03.344Z,55.50
2018-09-06T17:16:30.351Z,55.60
2018-09-06T17:18:57.182Z,55.60
2018-09-06T17:21:24.019Z,55.60
2018-09-06T17:23:50.849Z,55.60
2018-09-06T17:26:17.713Z,55.50
2018-09-06T17:28:44.794Z,55.40
2018-09-06T17:31:11.649Z,55.40
2018-09-06T17:33:39.688Z,55.40
2018-09-06T17:36:06.514Z,55.50
2018-09-06T17:38:33.414Z,55.50
2018-09-06T17:41:00.168Z,55.30
2018-09-06T17:43:27.014Z,55.30
2018-09-06T17:45:53.900Z,55.40
2018-09-06T17:48:20.713Z,55.50
2018-09-06T17:50:47.541Z,55.30
2018-09-06T17:53:14.391Z,55.40
2018-09-06T17:55:41.272Z,55.40
2018-09-06T17:58:08.117Z,55.40
2018-09-06T18:00:34.955Z,55.40
2018-09-06T18:03:01.818Z,55.40
2018-09-06T18:05:28.825Z,55.40
2018-09-06T18:07:55.662Z,55.50
2018-09-06T18:10:22.498Z,55.40
2018-09-06T18:12:49.327Z,55.40
2018-09-06T18:15:16.215Z,55.40
2018-09-06T18:17:43.123Z,55.40
2018-09-06T18:20:09.852Z,55.50
2018-09-06T18:22:36.682Z,55.50
2018-09-06T18:25:03.571Z,55.50
2018-09-06T18:27:30.418Z,55.50
2018-09-06T18:29:57.242Z,55.50
2018-09-06T18:32:24.295Z,55.50
2018-09-06T18:34:51.150Z,55.50
2018-09-06T18:37:17.984Z,55.50
2018-09-06T18:39:44.876Z,55.50
2018-09-06T18:42:11.680Z,55.50
2018-09-06T18:44:38.517Z,55.60
2018-09-06T18:47:05.340Z,55.50
2018-09-06T18:49:32.172Z,55.60
2018-09-06T18:51:59.014Z,55.60
2018-09-06T18:54:25.844Z,55.60
2018-09-06T18:56:52.669Z,55.50
2018-09-06T18:59:19.509Z,55.60
2018-09-06T19:01:46.324Z,55.60
2018-09-06T19:04:13.155Z,55.60
2018-09-06T19:06:40.010Z,55.60
2018-09-06T19:09:06.851Z,55.60
2018-09-06T19:11:33.641Z,55.60
2018-09-06T19:14:01.324Z,55.60
2018-09-06T19:16:28.304Z,57.40
2018-09-06T19:18:55.117Z,57.40
2018-09-06T19:21:21.949Z,57.20
2018-09-06T19:23:49.749Z,57.00
2018-09-06T19:26:16.741Z,56.90
2018-09-06T19:28:43.511Z,56.80
2018-09-06T19:31:10.334Z,56.70
2018-09-06T19:33:37.158Z,56.60
2018-09-06T19:36:04.066Z,56.60
2018-09-06T19:38:30.890Z,56.60
2018-09-06T19:40:57.724Z,56.50
2018-09-06T19:43:24.553Z,56.60
2018-09-06T19:45:51.443Z,56.50
2018-09-06T19:48:18.279Z,56.50
2018-09-06T19:50:45.102Z,56.40
2018-09-06T19:53:11.943Z,56.30
2018-09-06T19:55:38.811Z,56.30
2018-09-06T19:58:05.615Z,56.40
2018-09-06T20:00:32.444Z,56.40
2018-09-06T20:02:59.263Z,56.40
2018-09-06T20:05:26.187Z,56.40
2018-09-06T20:07:53.049Z,56.30
2018-09-06T20:10:19.849Z,56.40
2018-09-06T20:12:46.684Z,56.30
2018-09-06T20:15:13.558Z,56.40
2018-09-06T20:17:40.376Z,56.30
2018-09-06T20:20:07.194Z,56.30
2018-09-06T20:22:34.039Z,56.30
2018-09-06T20:25:00.924Z,56.40
2018-09-06T20:27:27.759Z,56.30
2018-09-06T20:29:54.581Z,56.30
2018-09-06T20:32:21.800Z,56.30
2018-09-06T20:34:48.789Z,56.30
2018-09-06T20:37:15.634Z,56.20
2018-09-06T20:39:42.450Z,56.20
2018-09-06T20:42:09.288Z,56.20
2018-09-06T20:44:36.285Z,56.20
2018-09-06T20:47:03.129Z,56.20
2018-09-06T20:52:09.169Z,56.40
2018-09-06T21:00:08.772Z,56.70
2018-09-06T21:02:45.092Z,56.80
2018-09-06T21:05:24.360Z,56.90
2018-09-06T21:08:02.305Z,56.90
2018-09-06T21:10:36.300Z,56.70
2018-09-06T21:15:50.118Z,56.70
2018-09-06T21:18:27.527Z,57.00
2018-09-06T21:23:30.930Z,56.70
2018-09-06T21:26:03.830Z,56.60
2018-09-06T21:28:42.200Z,56.50
2018-09-06T21:31:11.685Z,56.70
2018-09-06T21:33:51.293Z,56.70
2018-09-06T21:36:18.230Z,56.70
2018-09-06T21:44:12.514Z,56.90
2018-09-06T21:46:39.396Z,56.80
2018-09-06T21:49:06.215Z,56.70
2018-09-06T21:51:33.048Z,56.80
2018-09-06T21:53:59.874Z,56.70
2018-09-06T21:56:26.754Z,56.50
2018-09-06T21:58:53.602Z,56.60
2018-09-06T22:01:20.438Z,56.50
2018-09-06T22:12:05.980Z,56.40
2018-09-06T22:14:45.182Z,56.50
2018-09-06T22:22:44.365Z,56.40
2018-09-06T22:33:30.227Z,56.40
2018-09-06T22:35:57.118Z,56.40
2018-09-06T22:38:23.940Z,56.40
2018-09-06T22:40:50.770Z,56.50
2018-09-06T22:43:17.593Z,56.30
2018-09-06T22:45:44.514Z,56.40
2018-09-06T22:48:11.338Z,56.40
2018-09-06T22:50:38.154Z,56.30
2018-09-06T22:53:04.982Z,56.40
2018-09-06T22:55:31.891Z,56.30
2018-09-06T22:57:58.714Z,56.30
2018-09-06T23:00:25.546Z,56.30
2018-09-06T23:02:52.364Z,56.30
2018-09-06T23:05:19.195Z,56.40
2018-09-06T23:07:46.059Z,56.40
2018-09-06T23:10:21.976Z,56.30
2018-09-06T23:15:31.404Z,56.30
2018-09-06T23:17:58.242Z,56.40
2018-09-06T23:20:25.076Z,56.30
2018-09-06T23:23:02.981Z,56.30
2018-09-06T23:25:33.890Z,56.30
2018-09-06T23:28:00.709Z,56.30
2018-09-06T23:30:27.553Z,56.30
2018-09-06T23:32:56.563Z,57.00
2018-09-06T23:35:26.004Z,56.30
2018-09-06T23:37:52.828Z,56.30
2018-09-06T23:40:19.663Z,56.30
2018-09-06T23:42:46.493Z,56.30
2018-09-06T23:45:13.369Z,56.30
2018-09-06T23:47:40.210Z,56.30
2018-09-06T23:50:07.038Z,56.30
2018-09-06T23:52:33.907Z,56.30
2018-09-06T23:55:00.745Z,56.30
2018-09-06T23:57:27.592Z,56.40
2018-09-06T23:59:54.401Z,56.40
